KEWN/EWN METAR and TAF weather

Enter ICAO airport designator
Station Type Date Time Source
KEWN METAR 2020/07/11 16:54 UTC NOAA

KEWN 111654Z 30007KT 10SM CLR 32/23 A2983 RMK AO2 SLP102 T03170233 $


Station Type Date Time Source
KEWN Decoded METAR 2020/07/11 16:54 UTC NOAA

New Bern, Craven County Regional Airport, NC, United States (KEWN) 35-04-03N 077-02-50W 3M
Jul 11, 2020 - 12:54 PM EDT / 2020.07.11 1654 UTC
Wind: from the WNW (300 degrees) at 8 MPH (7 KT):0
Visibility: 10 mile(s):0
Sky conditions: clear
Temperature: 89.1 F (31.7 C)
Heat index: 98.1 F (36.7 C):1
Dew Point: 73.9 F (23.3 C)
Relative Humidity: 61%
Pressure (altimeter): 29.83 in. Hg (1010 hPa)
ob: KEWN 111654Z 30007KT 10SM CLR 32/23 A2983 RMK AO2 SLP102 T03170233
cycle: 17

Station Type Date Time Source
KEWN TAF 2020/07/11 12:24 UTC NOAA

TAF KEWN 111123Z 1112/1212 25006KT P6SM SCT050
FM111800 21011KT P6SM -SHRA VCTS BKN045CB
FM112300 21006KT P6SM BKN060

Example: see airport list